Accueil
METAR-TAF:

METAR-TAF

Aéroports :

Wellington, Nouvelle-Zélande

Aéroport international de Wellington

latitude: 41-20S, longitude: 174-48E, altitude: 12 m

Observation

Le bulletin a été fait il y a 28 minutes, à 06:30 UTC
Vent 10 kt de nord/nord-est
Température 10°C
Humidité 82%
Pression 1018 hPa
Visibilité 10 km ou plus

METAR: NZWN 270630Z AUTO 02010KT 9999 NCD 10/07 Q1018 NOSIG

Heure: 18:58 (06:58 UTC)

Prévision

Le bulletin a été fait il y a 1 heure et 56 minutes, à 05:02 UTC
Prévision valable du 27 à 06 UTC au 28 à 06 UTC
Vent 15 kt de nord
Visibilité 10 km ou plus
Nuages épars à une hauteur de 2500 ft
A partir de 27 à 0900 UTC
Vent 15 kt de sud
Visibilité 10 km ou plus
Nuages fragmentés à une hauteur de 2000 ft
faibles averses de pluie

TAF: NZWN 270502Z 2706/2806 36015KT 9999 SCT025 FM270900 18015KT 9999 -SHRA BKN020

Observations et prévisions météorologiques de plus de 4000 aéroports (messages METAR et TAF).

Les stations disponibles sont représentées par des disques jaunes et rouges sur la carte.

Passer la souris dessus pour voir le nom de la station.

Cliquer dessus pour voir les observations et prévisions météorologiques.

Pour changer de carte: cliquez sur les boutons verts avec une croix noire pour zoomer, sur le bouton vert avec un tiret pour effectuer un zoom arrière, ou sur les flèches vertes pour les cartes adjacentes.


METAR-TAF: